This is the latest recevied weather packets stored in our database for station/object K8JMX-13. If no packets are shown the sender has not sent any weather packets the latest 10 day(s).
| Time | Temp. | Humidity | Pressure | Rain* | Wind** | Luminosity | Snow |
|---|---|---|---|---|---|---|---|
| 1778016769 | 16.11° C | 81% | 1006.8 hPa | 3.05 mm | - | 11 W/m² | - |
| 1778016463 | 18.33° C | 75% | 1006.5 hPa | 1.27 mm | - | 7 W/m² | - |
| 1778016162 | 21.11° C | 55% | 1005.9 hPa | 0 mm | - | 8 W/m² | - |
| 1778015858 | 21.11° C | 55% | 1005.7 hPa | 0 mm | - | 30 W/m² | - |
| 1778015556 | 21.11° C | 54% | 1005.7 hPa | 0 mm | - | 55 W/m² | - |
| 1778015252 | 21.11° C | 54% | 1005.5 hPa | 0 mm | - | 65 W/m² | - |
| 1778014948 | 21.11° C | 54% | 1005.8 hPa | 0 mm | - | 88 W/m² | - |
| 1778014646 | 21.11° C | 54% | 1005.5 hPa | 0 mm | - | 107 W/m² | - |
| 1778014344 | 21.11° C | 54% | 1005.6 hPa | 0 mm | - | 196 W/m² | - |
| 1778014040 | 21.11° C | 56% | 1005.9 hPa | 0 mm | - | 91 W/m² | - |
| 1778013738 | 21.11° C | 55% | 1006.1 hPa | 0 mm | - | 82 W/m² | - |
| 1778013435 | 21.11° C | 55% | 1006.1 hPa | 0 mm | - | 46 W/m² | - |
| 1778013132 | 21.11° C | 55% | 1006.1 hPa | 0 mm | - | 65 W/m² | - |
| 1778012828 | 21.11° C | 55% | 1006.1 hPa | 0 mm | - | 77 W/m² | - |
| 1778012524 | 21.11° C | 55% | 1006.2 hPa | 0 mm | - | 86 W/m² | - |
| 1778012221 | 21.11° C | 54% | 1006.2 hPa | 0 mm | - | 118 W/m² | - |
| 1778011919 | 21.11° C | 55% | 1006.2 hPa | 0 mm | - | 144 W/m² | - |
| 1778011616 | 21.11° C | 55% | 1006.4 hPa | 0 mm | - | 157 W/m² | - |
| 1778011313 | 21.11° C | 55% | 1006.3 hPa | 0 mm | - | 131 W/m² | - |
| 1778011009 | 21.11° C | 54% | 1006.3 hPa | 0 mm | - | 157 W/m² | - |
| 1778010706 | 21.11° C | 55% | 1006.4 hPa | 0 mm | - | 111 W/m² | - |
| 1778010404 | 21.11° C | 55% | 1006.4 hPa | 0 mm | - | 146 W/m² | - |
| 1778010099 | 21.11° C | 55% | 1006.5 hPa | 0 mm | - | 140 W/m² | - |
| 1778009796 | 21.11° C | 56% | 1006.6 hPa | 0 mm | - | 144 W/m² | - |
| 1778009493 | 21.11° C | 55% | 1006.7 hPa | 0 mm | - | 152 W/m² | - |
* Rain latest hour (hover to see other rain measurements)
** Current wind speed in m/s (hover to see current wind gust speed)